sensor_id;sensor_type;location;lat;lon;timestamp;temperature;humidity
74923;HTU21D;64715;44.760;37.678;2024-03-08T00:00:58;2.28;77.60
74923;HTU21D;64715;44.760;37.678;2024-03-08T00:01:59;2.27;77.71
74923;HTU21D;64715;44.760;37.678;2024-03-08T00:03:00;2.27;77.71
74923;HTU21D;64715;44.760;37.678;2024-03-08T00:04:05;2.29;77.57
74923;HTU21D;64715;44.760;37.678;2024-03-08T00:05:08;2.27;77.66
74923;HTU21D;64715;44.760;37.678;2024-03-08T00:06:12;2.29;77.66
74923;HTU21D;64715;44.760;37.678;2024-03-08T00:07:13;2.27;77.50
74923;HTU21D;64715;44.760;37.678;2024-03-08T00:08:14;2.27;77.62
74923;HTU21D;64715;44.760;37.678;2024-03-08T00:09:16;2.28;77.63
74923;HTU21D;64715;44.760;37.678;2024-03-08T00:10:16;2.30;77.60
74923;HTU21D;64715;44.760;37.678;2024-03-08T00:11:18;2.30;77.54
74923;HTU21D;64715;44.760;37.678;2024-03-08T00:12:19;2.30;77.58
74923;HTU21D;64715;44.760;37.678;2024-03-08T00:13:21;2.30;77.60
74923;HTU21D;64715;44.760;37.678;2024-03-08T00:14:22;2.31;77.43
74923;HTU21D;64715;44.760;37.678;2024-03-08T00:15:22;2.30;77.47
74923;HTU21D;64715;44.760;37.678;2024-03-08T00:16:23;2.31;77.58
74923;HTU21D;64715;44.760;37.678;2024-03-08T00:17:24;2.34;77.52
74923;HTU21D;64715;44.760;37.678;2024-03-08T00:18:29;2.34;77.50
74923;HTU21D;64715;44.760;37.678;2024-03-08T00:19:30;2.34;77.41
74923;HTU21D;64715;44.760;37.678;2024-03-08T00:20:31;2.32;77.66
74923;HTU21D;64715;44.760;37.678;2024-03-08T00:21:32;2.34;77.62
74923;HTU21D;64715;44.760;37.678;2024-03-08T00:22:33;2.31;77.40
74923;HTU21D;64715;44.760;37.678;2024-03-08T00:23:34;2.32;77.60
74923;HTU21D;64715;44.760;37.678;2024-03-08T00:24:34;2.35;77.39
74923;HTU21D;64715;44.760;37.678;2024-03-08T00:25:35;2.32;77.47
74923;HTU21D;64715;44.760;37.678;2024-03-08T00:26:36;2.32;77.48
74923;HTU21D;64715;44.760;37.678;2024-03-08T00:27:37;2.34;77.48
74923;HTU21D;64715;44.760;37.678;2024-03-08T00:28:38;2.34;77.36
74923;HTU21D;64715;44.760;37.678;2024-03-08T00:29:39;2.31;77.39
74923;HTU21D;64715;44.760;37.678;2024-03-08T00:30:40;2.31;77.54
74923;HTU21D;64715;44.760;37.678;2024-03-08T00:31:43;2.29;77.59
74923;HTU21D;64715;44.760;37.678;2024-03-08T00:32:44;2.29;77.40
74923;HTU21D;64715;44.760;37.678;2024-03-08T00:33:45;2.29;77.39
74923;HTU21D;64715;44.760;37.678;2024-03-08T00:34:46;2.29;77.48
74923;HTU21D;64715;44.760;37.678;2024-03-08T00:35:47;2.28;77.63
74923;HTU21D;64715;44.760;37.678;2024-03-08T00:36:48;2.29;77.59
74923;HTU21D;64715;44.760;37.678;2024-03-08T00:37:49;2.29;77.54
74923;HTU21D;64715;44.760;37.678;2024-03-08T00:38:51;2.30;77.53
74923;HTU21D;64715;44.760;37.678;2024-03-08T00:39:52;2.29;77.33
74923;HTU21D;64715;44.760;37.678;2024-03-08T00:40:53;2.30;77.43
74923;HTU21D;64715;44.760;37.678;2024-03-08T00:41:54;2.29;77.48
74923;HTU21D;64715;44.760;37.678;2024-03-08T00:42:55;2.27;77.58
74923;HTU21D;64715;44.760;37.678;2024-03-08T00:43:55;2.30;77.45
74923;HTU21D;64715;44.760;37.678;2024-03-08T00:44:56;2.29;77.46
74923;HTU21D;64715;44.760;37.678;2024-03-08T00:45:58;2.27;77.56
74923;HTU21D;64715;44.760;37.678;2024-03-08T00:46:59;2.27;77.53
74923;HTU21D;64715;44.760;37.678;2024-03-08T00:48:00;2.27;77.38
74923;HTU21D;64715;44.760;37.678;2024-03-08T00:49:01;2.26;77.42
74923;HTU21D;64715;44.760;37.678;2024-03-08T00:50:02;2.26;77.39
74923;HTU21D;64715;44.760;37.678;2024-03-08T00:51:04;2.27;77.49
74923;HTU21D;64715;44.760;37.678;2024-03-08T00:52:05;2.25;77.48
74923;HTU21D;64715;44.760;37.678;2024-03-08T00:53:07;2.25;77.54
74923;HTU21D;64715;44.760;37.678;2024-03-08T00:54:08;2.25;77.58
74923;HTU21D;64715;44.760;37.678;2024-03-08T00:55:09;2.26;77.62
74923;HTU21D;64715;44.760;37.678;2024-03-08T00:56:11;2.25;77.44
74923;HTU21D;64715;44.760;37.678;2024-03-08T00:57:12;2.24;77.47
74923;HTU21D;64715;44.760;37.678;2024-03-08T00:58:13;2.25;77.53
74923;HTU21D;64715;44.760;37.678;2024-03-08T00:59:14;2.25;77.64
74923;HTU21D;64715;44.760;37.678;2024-03-08T01:00:15;2.26;77.56
74923;HTU21D;64715;44.760;37.678;2024-03-08T01:01:18;2.23;77.46
74923;HTU21D;64715;44.760;37.678;2024-03-08T01:02:20;2.22;77.44
74923;HTU21D;64715;44.760;37.678;2024-03-08T01:03:21;2.22;77.59
74923;HTU21D;64715;44.760;37.678;2024-03-08T01:04:22;2.24;77.51
74923;HTU21D;64715;44.760;37.678;2024-03-08T01:05:24;2.24;77.50
74923;HTU21D;64715;44.760;37.678;2024-03-08T01:06:25;2.24;77.40
74923;HTU21D;64715;44.760;37.678;2024-03-08T01:07:27;2.23;77.52
74923;HTU21D;64715;44.760;37.678;2024-03-08T01:08:28;2.23;77.58
74923;HTU21D;64715;44.760;37.678;2024-03-08T01:09:29;2.23;77.60
74923;HTU21D;64715;44.760;37.678;2024-03-08T01:10:30;2.24;77.42
74923;HTU21D;64715;44.760;37.678;2024-03-08T01:11:31;2.23;77.59
74923;HTU21D;64715;44.760;37.678;2024-03-08T01:12:32;2.24;77.32
74923;HTU21D;64715;44.760;37.678;2024-03-08T01:13:33;2.24;77.53
74923;HTU21D;64715;44.760;37.678;2024-03-08T01:14:34;2.24;77.37
74923;HTU21D;64715;44.760;37.678;2024-03-08T01:15:36;2.23;77.52
74923;HTU21D;64715;44.760;37.678;2024-03-08T01:16:37;2.23;77.58
74923;HTU21D;64715;44.760;37.678;2024-03-08T01:17:37;2.23;77.38
74923;HTU21D;64715;44.760;37.678;2024-03-08T01:18:38;2.22;77.60
74923;HTU21D;64715;44.760;37.678;2024-03-08T01:19:39;2.20;77.31
74923;HTU21D;64715;44.760;37.678;2024-03-08T01:20:40;2.21;77.53
74923;HTU21D;64715;44.760;37.678;2024-03-08T01:21:42;2.20;77.50
74923;HTU21D;64715;44.760;37.678;2024-03-08T01:22:43;2.20;77.51
74923;HTU21D;64715;44.760;37.678;2024-03-08T01:23:43;2.17;77.48
74923;HTU21D;64715;44.760;37.678;2024-03-08T01:24:44;2.17;77.72
74923;HTU21D;64715;44.760;37.678;2024-03-08T01:25:45;2.15;77.39
74923;HTU21D;64715;44.760;37.678;2024-03-08T01:26:46;2.16;77.44
74923;HTU21D;64715;44.760;37.678;2024-03-08T01:27:48;2.15;77.50
74923;HTU21D;64715;44.760;37.678;2024-03-08T01:28:49;2.14;77.48
74923;HTU21D;64715;44.760;37.678;2024-03-08T01:29:50;2.13;77.53
74923;HTU21D;64715;44.760;37.678;2024-03-08T01:30:51;2.12;77.52
74923;HTU21D;64715;44.760;37.678;2024-03-08T01:31:56;2.11;77.48
74923;HTU21D;64715;44.760;37.678;2024-03-08T01:32:57;2.09;77.62
74923;HTU21D;64715;44.760;37.678;2024-03-08T01:33:58;2.09;77.69
74923;HTU21D;64715;44.760;37.678;2024-03-08T01:34:59;2.08;77.65
74923;HTU21D;64715;44.760;37.678;2024-03-08T01:36:00;2.08;77.76
74923;HTU21D;64715;44.760;37.678;2024-03-08T01:37:01;2.07;77.75
74923;HTU21D;64715;44.760;37.678;2024-03-08T01:38:02;2.07;77.70
74923;HTU21D;64715;44.760;37.678;2024-03-08T01:39:05;2.07;77.63
74923;HTU21D;64715;44.760;37.678;2024-03-08T01:40:08;2.08;77.74
74923;HTU21D;64715;44.760;37.678;2024-03-08T01:41:09;2.07;77.69
74923;HTU21D;64715;44.760;37.678;2024-03-08T01:42:10;2.08;77.76
74923;HTU21D;64715;44.760;37.678;2024-03-08T01:43:31;2.05;77.76
74923;HTU21D;64715;44.760;37.678;2024-03-08T01:44:32;2.03;77.72
74923;HTU21D;64715;44.760;37.678;2024-03-08T01:45:33;2.02;77.60
74923;HTU21D;64715;44.760;37.678;2024-03-08T01:46:35;2.00;77.69
74923;HTU21D;64715;44.760;37.678;2024-03-08T01:47:37;2.00;77.86
74923;HTU21D;64715;44.760;37.678;2024-03-08T01:48:38;2.00;77.79
74923;HTU21D;64715;44.760;37.678;2024-03-08T01:49:41;2.00;77.82
74923;HTU21D;64715;44.760;37.678;2024-03-08T01:50:43;2.00;77.97
74923;HTU21D;64715;44.760;37.678;2024-03-08T01:51:45;2.01;77.86
74923;HTU21D;64715;44.760;37.678;2024-03-08T01:52:46;2.00;77.91
74923;HTU21D;64715;44.760;37.678;2024-03-08T01:53:47;2.01;77.92
74923;HTU21D;64715;44.760;37.678;2024-03-08T01:54:48;1.99;78.01
74923;HTU21D;64715;44.760;37.678;2024-03-08T01:55:50;2.00;77.84
74923;HTU21D;64715;44.760;37.678;2024-03-08T01:56:52;2.01;77.82
74923;HTU21D;64715;44.760;37.678;2024-03-08T01:57:58;2.02;77.92
74923;HTU21D;64715;44.760;37.678;2024-03-08T01:59:00;2.02;77.87
74923;HTU21D;64715;44.760;37.678;2024-03-08T02:00:01;2.02;77.92
74923;HTU21D;64715;44.760;37.678;2024-03-08T02:01:05;2.03;77.89
74923;HTU21D;64715;44.760;37.678;2024-03-08T02:02:08;2.05;77.98
74923;HTU21D;64715;44.760;37.678;2024-03-08T02:03:10;2.02;77.83
74923;HTU21D;64715;44.760;37.678;2024-03-08T02:04:11;2.03;78.07
74923;HTU21D;64715;44.760;37.678;2024-03-08T02:05:12;2.06;77.73
74923;HTU21D;64715;44.760;37.678;2024-03-08T02:06:14;2.06;77.78
74923;HTU21D;64715;44.760;37.678;2024-03-08T02:07:16;2.07;77.93
74923;HTU21D;64715;44.760;37.678;2024-03-08T02:08:18;2.06;78.03
74923;HTU21D;64715;44.760;37.678;2024-03-08T02:09:19;2.08;77.69
74923;HTU21D;64715;44.760;37.678;2024-03-08T02:10:20;2.09;77.95
74923;HTU21D;64715;44.760;37.678;2024-03-08T02:11:22;2.09;78.03
74923;HTU21D;64715;44.760;37.678;2024-03-08T02:12:23;2.08;77.77
74923;HTU21D;64715;44.760;37.678;2024-03-08T02:13:24;2.08;77.74
74923;HTU21D;64715;44.760;37.678;2024-03-08T02:14:25;2.10;77.79
74923;HTU21D;64715;44.760;37.678;2024-03-08T02:15:26;2.10;77.91
74923;HTU21D;64715;44.760;37.678;2024-03-08T02:16:27;2.11;77.72
74923;HTU21D;64715;44.760;37.678;2024-03-08T02:17:28;2.10;77.88
74923;HTU21D;64715;44.760;37.678;2024-03-08T02:18:31;2.11;77.94
74923;HTU21D;64715;44.760;37.678;2024-03-08T02:19:35;2.11;77.90
74923;HTU21D;64715;44.760;37.678;2024-03-08T02:20:37;2.11;78.01
74923;HTU21D;64715;44.760;37.678;2024-03-08T02:21:38;2.11;77.76
74923;HTU21D;64715;44.760;37.678;2024-03-08T02:22:38;2.09;77.96
74923;HTU21D;64715;44.760;37.678;2024-03-08T02:23:39;2.11;77.95
74923;HTU21D;64715;44.760;37.678;2024-03-08T02:24:40;2.11;77.66
74923;HTU21D;64715;44.760;37.678;2024-03-08T02:25:41;2.11;77.97
74923;HTU21D;64715;44.760;37.678;2024-03-08T02:26:43;2.11;77.89
74923;HTU21D;64715;44.760;37.678;2024-03-08T02:27:43;2.10;77.69
74923;HTU21D;64715;44.760;37.678;2024-03-08T02:28:45;2.11;77.86
74923;HTU21D;64715;44.760;37.678;2024-03-08T02:29:46;2.11;77.89
74923;HTU21D;64715;44.760;37.678;2024-03-08T02:30:48;2.14;77.63
74923;HTU21D;64715;44.760;37.678;2024-03-08T02:31:51;2.13;77.77
74923;HTU21D;64715;44.760;37.678;2024-03-08T02:32:52;2.13;77.79
74923;HTU21D;64715;44.760;37.678;2024-03-08T02:33:53;2.11;77.85
74923;HTU21D;64715;44.760;37.678;2024-03-08T02:34:58;2.11;77.91
74923;HTU21D;64715;44.760;37.678;2024-03-08T02:36:00;2.11;77.85
74923;HTU21D;64715;44.760;37.678;2024-03-08T02:37:01;2.09;77.97
74923;HTU21D;64715;44.760;37.678;2024-03-08T02:38:03;2.09;77.93
74923;HTU21D;64715;44.760;37.678;2024-03-08T02:39:04;2.10;77.98
74923;HTU21D;64715;44.760;37.678;2024-03-08T02:40:09;2.10;77.95
74923;HTU21D;64715;44.760;37.678;2024-03-08T02:41:10;2.10;78.11
74923;HTU21D;64715;44.760;37.678;2024-03-08T02:42:11;2.12;78.01
74923;HTU21D;64715;44.760;37.678;2024-03-08T02:43:14;2.13;77.79
74923;HTU21D;64715;44.760;37.678;2024-03-08T02:44:15;2.13;77.77
74923;HTU21D;64715;44.760;37.678;2024-03-08T02:45:16;2.13;77.81
74923;HTU21D;64715;44.760;37.678;2024-03-08T02:46:17;2.15;78.02
74923;HTU21D;64715;44.760;37.678;2024-03-08T02:47:18;2.16;77.90
74923;HTU21D;64715;44.760;37.678;2024-03-08T02:48:19;2.19;78.01
74923;HTU21D;64715;44.760;37.678;2024-03-08T02:49:20;2.17;77.84
74923;HTU21D;64715;44.760;37.678;2024-03-08T02:50:22;2.19;77.96
74923;HTU21D;64715;44.760;37.678;2024-03-08T02:51:23;2.19;77.76
74923;HTU21D;64715;44.760;37.678;2024-03-08T02:52:24;2.16;77.85
74923;HTU21D;64715;44.760;37.678;2024-03-08T02:53:25;2.15;77.91
74923;HTU21D;64715;44.760;37.678;2024-03-08T02:54:26;2.16;77.94
74923;HTU21D;64715;44.760;37.678;2024-03-08T02:55:27;2.16;77.97
74923;HTU21D;64715;44.760;37.678;2024-03-08T02:56:28;2.16;77.88
74923;HTU21D;64715;44.760;37.678;2024-03-08T02:57:29;2.15;77.79
74923;HTU21D;64715;44.760;37.678;2024-03-08T02:58:30;2.15;78.11
74923;HTU21D;64715;44.760;37.678;2024-03-08T02:59:30;2.16;77.97
74923;HTU21D;64715;44.760;37.678;2024-03-08T03:00:31;2.16;77.89
74923;HTU21D;64715;44.760;37.678;2024-03-08T03:01:33;2.15;77.95
74923;HTU21D;64715;44.760;37.678;2024-03-08T03:02:37;2.16;77.98
74923;HTU21D;64715;44.760;37.678;2024-03-08T03:03:38;2.16;77.64
74923;HTU21D;64715;44.760;37.678;2024-03-08T03:04:40;2.16;77.92
74923;HTU21D;64715;44.760;37.678;2024-03-08T03:05:41;2.17;77.94
74923;HTU21D;64715;44.760;37.678;2024-03-08T03:06:42;2.16;77.87
74923;HTU21D;64715;44.760;37.678;2024-03-08T03:07:43;2.17;77.93
74923;HTU21D;64715;44.760;37.678;2024-03-08T03:08:44;2.16;77.98
74923;HTU21D;64715;44.760;37.678;2024-03-08T03:09:46;2.16;78.08
74923;HTU21D;64715;44.760;37.678;2024-03-08T03:10:47;2.15;77.98
74923;HTU21D;64715;44.760;37.678;2024-03-08T03:11:48;2.13;77.92
74923;HTU21D;64715;44.760;37.678;2024-03-08T03:12:49;2.11;78.08
74923;HTU21D;64715;44.760;37.678;2024-03-08T03:13:50;2.12;77.99
74923;HTU21D;64715;44.760;37.678;2024-03-08T03:14:51;2.13;77.95
74923;HTU21D;64715;44.760;37.678;2024-03-08T03:15:52;2.11;78.18
74923;HTU21D;64715;44.760;37.678;2024-03-08T03:16:54;2.10;78.05
74923;HTU21D;64715;44.760;37.678;2024-03-08T03:17:55;2.10;78.09
74923;HTU21D;64715;44.760;37.678;2024-03-08T03:18:56;2.11;78.14
74923;HTU21D;64715;44.760;37.678;2024-03-08T03:19:57;2.10;78.16
74923;HTU21D;64715;44.760;37.678;2024-03-08T03:20:58;2.10;78.36
74923;HTU21D;64715;44.760;37.678;2024-03-08T03:21:59;2.10;77.99
74923;HTU21D;64715;44.760;37.678;2024-03-08T03:23:00;2.11;77.89
74923;HTU21D;64715;44.760;37.678;2024-03-08T03:24:04;2.10;78.21
74923;HTU21D;64715;44.760;37.678;2024-03-08T03:25:10;2.11;77.92
74923;HTU21D;64715;44.760;37.678;2024-03-08T03:26:13;2.12;78.18
74923;HTU21D;64715;44.760;37.678;2024-03-08T03:27:14;2.13;78.22
74923;HTU21D;64715;44.760;37.678;2024-03-08T03:28:15;2.13;78.01
74923;HTU21D;64715;44.760;37.678;2024-03-08T03:29:18;2.14;78.08
74923;HTU21D;64715;44.760;37.678;2024-03-08T03:30:20;2.13;78.14
74923;HTU21D;64715;44.760;37.678;2024-03-08T03:31:22;2.16;78.16
74923;HTU21D;64715;44.760;37.678;2024-03-08T03:32:24;2.15;78.12
74923;HTU21D;64715;44.760;37.678;2024-03-08T03:33:25;2.16;78.14
74923;HTU21D;64715;44.760;37.678;2024-03-08T03:34:26;2.15;77.95
74923;HTU21D;64715;44.760;37.678;2024-03-08T03:35:28;2.15;78.24
74923;HTU21D;64715;44.760;37.678;2024-03-08T03:36:32;2.14;78.21
74923;HTU21D;64715;44.760;37.678;2024-03-08T03:37:34;2.14;77.95
74923;HTU21D;64715;44.760;37.678;2024-03-08T03:38:35;2.14;78.00
74923;HTU21D;64715;44.760;37.678;2024-03-08T03:39:35;2.13;78.11
74923;HTU21D;64715;44.760;37.678;2024-03-08T03:40:45;2.15;77.95
74923;HTU21D;64715;44.760;37.678;2024-03-08T03:41:46;2.12;78.02
74923;HTU21D;64715;44.760;37.678;2024-03-08T03:42:49;2.12;78.19
74923;HTU21D;64715;44.760;37.678;2024-03-08T03:43:51;2.12;78.11
74923;HTU21D;64715;44.760;37.678;2024-03-08T03:44:53;2.11;78.26
74923;HTU21D;64715;44.760;37.678;2024-03-08T03:45:56;2.10;78.14
74923;HTU21D;64715;44.760;37.678;2024-03-08T03:46:57;2.10;78.24
74923;HTU21D;64715;44.760;37.678;2024-03-08T03:47:58;2.08;78.37
74923;HTU21D;64715;44.760;37.678;2024-03-08T03:49:01;2.10;78.15
74923;HTU21D;64715;44.760;37.678;2024-03-08T03:50:02;2.10;78.18
74923;HTU21D;64715;44.760;37.678;2024-03-08T03:51:03;2.09;78.10
74923;HTU21D;64715;44.760;37.678;2024-03-08T03:52:05;2.07;78.24
74923;HTU21D;64715;44.760;37.678;2024-03-08T03:53:06;2.09;77.99
74923;HTU21D;64715;44.760;37.678;2024-03-08T03:54:08;2.09;78.22
74923;HTU21D;64715;44.760;37.678;2024-03-08T03:55:09;2.06;78.30
74923;HTU21D;64715;44.760;37.678;2024-03-08T03:56:12;2.09;78.30
74923;HTU21D;64715;44.760;37.678;2024-03-08T03:57:13;2.08;78.21
74923;HTU21D;64715;44.760;37.678;2024-03-08T03:58:14;2.08;78.22
74923;HTU21D;64715;44.760;37.678;2024-03-08T03:59:16;2.08;78.23
74923;HTU21D;64715;44.760;37.678;2024-03-08T04:00:17;2.08;78.22
74923;HTU21D;64715;44.760;37.678;2024-03-08T04:01:19;2.09;78.33
74923;HTU21D;64715;44.760;37.678;2024-03-08T04:02:20;2.09;78.23
74923;HTU21D;64715;44.760;37.678;2024-03-08T04:03:21;2.10;78.34
74923;HTU21D;64715;44.760;37.678;2024-03-08T04:04:22;2.09;78.38
74923;HTU21D;64715;44.760;37.678;2024-03-08T04:05:25;2.09;78.24
74923;HTU21D;64715;44.760;37.678;2024-03-08T04:06:26;2.09;78.24
74923;HTU21D;64715;44.760;37.678;2024-03-08T04:07:27;2.10;78.21
74923;HTU21D;64715;44.760;37.678;2024-03-08T04:08:28;2.11;78.34
74923;HTU21D;64715;44.760;37.678;2024-03-08T04:09:29;2.10;78.19
74923;HTU21D;64715;44.760;37.678;2024-03-08T04:10:30;2.10;78.29
74923;HTU21D;64715;44.760;37.678;2024-03-08T04:11:31;2.10;78.33
74923;HTU21D;64715;44.760;37.678;2024-03-08T04:12:34;2.11;78.21
74923;HTU21D;64715;44.760;37.678;2024-03-08T04:13:36;2.10;78.26
74923;HTU21D;64715;44.760;37.678;2024-03-08T04:14:40;2.11;78.25
74923;HTU21D;64715;44.760;37.678;2024-03-08T04:15:42;2.10;78.32
74923;HTU21D;64715;44.760;37.678;2024-03-08T04:16:46;2.10;78.17
74923;HTU21D;64715;44.760;37.678;2024-03-08T04:17:49;2.10;78.13
74923;HTU21D;64715;44.760;37.678;2024-03-08T04:18:50;2.08;78.21
74923;HTU21D;64715;44.760;37.678;2024-03-08T04:19:51;2.09;78.09
74923;HTU21D;64715;44.760;37.678;2024-03-08T04:20:52;2.08;78.14
74923;HTU21D;64715;44.760;37.678;2024-03-08T04:21:52;2.08;78.14
74923;HTU21D;64715;44.760;37.678;2024-03-08T04:22:53;2.09;78.13
74923;HTU21D;64715;44.760;37.678;2024-03-08T04:23:55;2.07;78.21
74923;HTU21D;64715;44.760;37.678;2024-03-08T04:24:56;2.08;78.11
74923;HTU21D;64715;44.760;37.678;2024-03-08T04:25:57;2.07;78.27
74923;HTU21D;64715;44.760;37.678;2024-03-08T04:26:58;2.07;78.27
74923;HTU21D;64715;44.760;37.678;2024-03-08T04:27:59;2.08;78.43
74923;HTU21D;64715;44.760;37.678;2024-03-08T04:29:01;2.09;78.37
74923;HTU21D;64715;44.760;37.678;2024-03-08T04:30:02;2.09;78.45
74923;HTU21D;64715;44.760;37.678;2024-03-08T04:31:04;2.09;78.29
74923;HTU21D;64715;44.760;37.678;2024-03-08T04:32:06;2.11;78.14
74923;HTU21D;64715;44.760;37.678;2024-03-08T04:33:10;2.09;78.04
74923;HTU21D;64715;44.760;37.678;2024-03-08T04:34:11;2.09;78.26
74923;HTU21D;64715;44.760;37.678;2024-03-08T04:35:12;2.09;78.32
74923;HTU21D;64715;44.760;37.678;2024-03-08T04:36:13;2.09;78.33
74923;HTU21D;64715;44.760;37.678;2024-03-08T04:37:14;2.09;78.33
74923;HTU21D;64715;44.760;37.678;2024-03-08T04:38:15;2.09;78.14
74923;HTU21D;64715;44.760;37.678;2024-03-08T04:39:16;2.06;78.24
74923;HTU21D;64715;44.760;37.678;2024-03-08T04:40:19;2.06;78.20
74923;HTU21D;64715;44.760;37.678;2024-03-08T04:41:20;2.03;78.20
74923;HTU21D;64715;44.760;37.678;2024-03-08T04:42:22;2.03;78.37
74923;HTU21D;64715;44.760;37.678;2024-03-08T04:43:24;2.01;78.36
74923;HTU21D;64715;44.760;37.678;2024-03-08T04:44:27;2.01;78.20
74923;HTU21D;64715;44.760;37.678;2024-03-08T04:45:28;2.00;78.27
74923;HTU21D;64715;44.760;37.678;2024-03-08T04:46:29;1.98;78.30
74923;HTU21D;64715;44.760;37.678;2024-03-08T04:47:30;1.99;78.37
74923;HTU21D;64715;44.760;37.678;2024-03-08T04:48:31;1.97;78.33
74923;HTU21D;64715;44.760;37.678;2024-03-08T04:49:33;1.97;78.34
74923;HTU21D;64715;44.760;37.678;2024-03-08T04:50:36;1.97;78.47
74923;HTU21D;64715;44.760;37.678;2024-03-08T04:51:38;1.96;78.28
74923;HTU21D;64715;44.760;37.678;2024-03-08T04:52:39;1.95;78.49
74923;HTU21D;64715;44.760;37.678;2024-03-08T04:53:40;1.94;78.25
74923;HTU21D;64715;44.760;37.678;2024-03-08T04:54:41;1.95;78.27
74923;HTU21D;64715;44.760;37.678;2024-03-08T04:55:42;1.95;78.34
74923;HTU21D;64715;44.760;37.678;2024-03-08T04:56:43;1.94;78.43
74923;HTU21D;64715;44.760;37.678;2024-03-08T04:57:44;1.94;78.21
74923;HTU21D;64715;44.760;37.678;2024-03-08T04:58:46;1.92;78.50
74923;HTU21D;64715;44.760;37.678;2024-03-08T04:59:47;1.94;78.49
74923;HTU21D;64715;44.760;37.678;2024-03-08T05:00:49;1.95;78.35
74923;HTU21D;64715;44.760;37.678;2024-03-08T05:01:51;1.97;78.25
74923;HTU21D;64715;44.760;37.678;2024-03-08T05:02:52;1.97;78.34
74923;HTU21D;64715;44.760;37.678;2024-03-08T05:03:53;1.97;78.44
74923;HTU21D;64715;44.760;37.678;2024-03-08T05:04:55;1.96;78.43
74923;HTU21D;64715;44.760;37.678;2024-03-08T05:05:56;1.98;78.37
74923;HTU21D;64715;44.760;37.678;2024-03-08T05:06:57;2.01;78.45
74923;HTU21D;64715;44.760;37.678;2024-03-08T05:08:01;2.03;78.36
74923;HTU21D;64715;44.760;37.678;2024-03-08T05:09:03;2.05;78.40
74923;HTU21D;64715;44.760;37.678;2024-03-08T05:10:14;2.05;78.43
74923;HTU21D;64715;44.760;37.678;2024-03-08T05:11:18;2.05;78.35
74923;HTU21D;64715;44.760;37.678;2024-03-08T05:12:19;2.07;78.61
74923;HTU21D;64715;44.760;37.678;2024-03-08T05:13:20;2.08;78.44
74923;HTU21D;64715;44.760;37.678;2024-03-08T05:14:21;2.11;78.54
74923;HTU21D;64715;44.760;37.678;2024-03-08T05:15:22;2.11;78.60
74923;HTU21D;64715;44.760;37.678;2024-03-08T05:16:22;2.13;78.70
74923;HTU21D;64715;44.760;37.678;2024-03-08T05:17:23;2.16;78.69
74923;HTU21D;64715;44.760;37.678;2024-03-08T05:18:24;2.20;78.55
74923;HTU21D;64715;44.760;37.678;2024-03-08T05:19:25;2.21;78.73
74923;HTU21D;64715;44.760;37.678;2024-03-08T05:20:27;2.23;78.49
74923;HTU21D;64715;44.760;37.678;2024-03-08T05:21:28;2.26;78.69
74923;HTU21D;64715;44.760;37.678;2024-03-08T05:22:29;2.29;78.51
74923;HTU21D;64715;44.760;37.678;2024-03-08T05:23:30;2.32;78.57
74923;HTU21D;64715;44.760;37.678;2024-03-08T05:24:31;2.34;78.85
74923;HTU21D;64715;44.760;37.678;2024-03-08T05:25:32;2.39;78.90
74923;HTU21D;64715;44.760;37.678;2024-03-08T05:26:33;2.42;78.47
74923;HTU21D;64715;44.760;37.678;2024-03-08T05:27:35;2.43;78.51
74923;HTU21D;64715;44.760;37.678;2024-03-08T05:28:36;2.45;78.68
74923;HTU21D;64715;44.760;37.678;2024-03-08T05:29:37;2.47;78.56
74923;HTU21D;64715;44.760;37.678;2024-03-08T05:30:38;2.51;78.81
74923;HTU21D;64715;44.760;37.678;2024-03-08T05:32:00;2.54;78.82
74923;HTU21D;64715;44.760;37.678;2024-03-08T05:33:01;2.56;78.79
74923;HTU21D;64715;44.760;37.678;2024-03-08T05:34:01;2.57;78.48
74923;HTU21D;64715;44.760;37.678;2024-03-08T05:35:04;2.59;78.58
74923;HTU21D;64715;44.760;37.678;2024-03-08T05:36:07;2.59;78.40
74923;HTU21D;64715;44.760;37.678;2024-03-08T05:37:09;2.58;78.50
74923;HTU21D;64715;44.760;37.678;2024-03-08T05:38:11;2.57;78.75
74923;HTU21D;64715;44.760;37.678;2024-03-08T05:39:13;2.56;78.45
74923;HTU21D;64715;44.760;37.678;2024-03-08T05:40:14;2.55;78.55
74923;HTU21D;64715;44.760;37.678;2024-03-08T05:41:16;2.57;78.36
74923;HTU21D;64715;44.760;37.678;2024-03-08T05:42:17;2.57;78.50
74923;HTU21D;64715;44.760;37.678;2024-03-08T05:43:18;2.57;78.37
74923;HTU21D;64715;44.760;37.678;2024-03-08T05:44:20;2.55;78.40
74923;HTU21D;64715;44.760;37.678;2024-03-08T05:45:21;2.53;78.52
74923;HTU21D;64715;44.760;37.678;2024-03-08T05:46:22;2.53;78.50
74923;HTU21D;64715;44.760;37.678;2024-03-08T05:47:22;2.55;78.47
74923;HTU21D;64715;44.760;37.678;2024-03-08T05:48:23;2.54;78.43
74923;HTU21D;64715;44.760;37.678;2024-03-08T05:49:25;2.56;78.52
74923;HTU21D;64715;44.760;37.678;2024-03-08T05:50:26;2.57;78.66
74923;HTU21D;64715;44.760;37.678;2024-03-08T05:51:27;2.59;78.57
74923;HTU21D;64715;44.760;37.678;2024-03-08T05:52:28;2.60;78.62
74923;HTU21D;64715;44.760;37.678;2024-03-08T05:53:29;2.60;78.56
74923;HTU21D;64715;44.760;37.678;2024-03-08T05:54:33;2.61;78.65
74923;HTU21D;64715;44.760;37.678;2024-03-08T05:55:34;2.61;78.71
74923;HTU21D;64715;44.760;37.678;2024-03-08T05:56:39;2.64;78.69
74923;HTU21D;64715;44.760;37.678;2024-03-08T05:57:42;2.64;78.63
74923;HTU21D;64715;44.760;37.678;2024-03-08T05:58:44;2.66;78.69
74923;HTU21D;64715;44.760;37.678;2024-03-08T05:59:46;2.68;78.77
74923;HTU21D;64715;44.760;37.678;2024-03-08T06:00:48;2.70;78.82
74923;HTU21D;64715;44.760;37.678;2024-03-08T06:01:49;2.70;78.70
74923;HTU21D;64715;44.760;37.678;2024-03-08T06:02:50;2.73;78.81
74923;HTU21D;64715;44.760;37.678;2024-03-08T06:03:55;2.71;78.59
74923;HTU21D;64715;44.760;37.678;2024-03-08T06:04:57;2.75;78.65
74923;HTU21D;64715;44.760;37.678;2024-03-08T06:05:58;2.74;78.75
74923;HTU21D;64715;44.760;37.678;2024-03-08T06:06:59;2.74;78.56
74923;HTU21D;64715;44.760;37.678;2024-03-08T06:08:00;2.76;78.85
74923;HTU21D;64715;44.760;37.678;2024-03-08T06:09:01;2.75;78.98
74923;HTU21D;64715;44.760;37.678;2024-03-08T06:10:11;2.76;78.76
74923;HTU21D;64715;44.760;37.678;2024-03-08T06:11:13;2.78;78.86
74923;HTU21D;64715;44.760;37.678;2024-03-08T06:12:15;2.80;78.94
74923;HTU21D;64715;44.760;37.678;2024-03-08T06:13:20;2.83;78.84
74923;HTU21D;64715;44.760;37.678;2024-03-08T06:14:21;2.87;78.65
74923;HTU21D;64715;44.760;37.678;2024-03-08T06:15:22;2.88;78.86
74923;HTU21D;64715;44.760;37.678;2024-03-08T06:16:23;2.90;78.96
74923;HTU21D;64715;44.760;37.678;2024-03-08T06:17:24;2.93;78.76
74923;HTU21D;64715;44.760;37.678;2024-03-08T06:18:26;2.95;78.91
74923;HTU21D;64715;44.760;37.678;2024-03-08T06:19:27;2.99;78.75
74923;HTU21D;64715;44.760;37.678;2024-03-08T06:20:28;3.03;78.96
74923;HTU21D;64715;44.760;37.678;2024-03-08T06:21:29;3.04;79.13
74923;HTU21D;64715;44.760;37.678;2024-03-08T06:22:30;3.11;79.15
74923;HTU21D;64715;44.760;37.678;2024-03-08T06:23:34;3.16;78.81